createdAt,value
2019-06-08T13:16:10.699Z,23.10
2019-06-08T13:21:25.489Z,22.30
2019-06-08T13:26:27.611Z,22.30
2019-06-08T13:31:28.676Z,22.80
2019-06-08T13:36:33.675Z,22.90
2019-06-08T13:41:38.571Z,23.00
2019-06-08T13:46:43.130Z,23.00
2019-06-08T13:51:47.932Z,22.90
2019-06-08T13:56:53.869Z,23.00
2019-06-08T14:01:58.513Z,23.00
2019-06-08T14:07:03.043Z,22.90
2019-06-08T14:12:07.791Z,22.80
2019-06-08T14:17:12.770Z,23.00
2019-06-08T14:22:20.086Z,22.80
2019-06-08T14:27:23.571Z,22.60
2019-06-08T14:32:28.246Z,22.50
2019-06-08T14:37:32.999Z,22.50
2019-06-08T14:42:38.344Z,22.70
2019-06-08T14:47:43.135Z,22.70
2019-06-08T14:52:47.987Z,22.40
2019-06-08T14:57:53.936Z,22.60
2019-06-08T15:02:59.156Z,22.50
2019-06-08T15:08:03.859Z,22.20
2019-06-08T15:13:08.477Z,22.00
2019-06-08T15:18:12.954Z,22.00
2019-06-08T15:23:21.233Z,21.90
2019-06-08T15:28:24.636Z,21.70
2019-06-08T15:33:32.039Z,21.60
2019-06-08T15:38:37.920Z,21.40
2019-06-08T15:43:41.771Z,21.30
2019-06-08T15:48:48.579Z,21.20
2019-06-08T15:53:52.478Z,21.10
2019-06-08T15:58:58.793Z,21.10
2019-06-08T16:04:04.233Z,21.00
2019-06-08T16:09:09.912Z,21.00
2019-06-08T16:14:14.468Z,21.00
2019-06-08T16:19:19.987Z,20.90
2019-06-08T16:24:25.781Z,20.90
2019-06-08T16:29:30.891Z,20.90
2019-06-08T16:34:35.670Z,21.00
2019-06-08T16:39:40.214Z,20.90
2019-06-08T16:44:44.709Z,20.80
2019-06-08T16:49:49.195Z,20.80
2019-06-08T16:54:53.843Z,20.80
2019-06-08T16:59:58.401Z,20.70
2019-06-08T17:05:02.934Z,20.70
2019-06-08T17:10:11.018Z,20.70
2019-06-08T17:15:17.578Z,20.70
2019-06-08T17:20:22.295Z,20.70
2019-06-08T17:25:26.776Z,20.60
2019-06-08T17:30:31.384Z,20.60
2019-06-08T17:35:35.873Z,20.50
2019-06-08T17:40:40.357Z,20.50
2019-06-08T17:45:44.946Z,20.50
2019-06-08T17:50:49.455Z,20.40
2019-06-08T17:55:53.987Z,20.40
2019-06-08T18:00:58.468Z,20.30
2019-06-08T18:06:02.950Z,20.30
2019-06-08T18:11:08.066Z,20.30
2019-06-08T18:16:12.835Z,20.20
2019-06-08T18:21:17.843Z,20.00
2019-06-08T18:26:22.750Z,20.00
2019-06-08T18:31:28.268Z,19.90
2019-06-08T18:36:32.859Z,19.90
2019-06-08T18:41:39.031Z,19.80
2019-06-08T18:46:43.537Z,19.80
2019-06-08T18:51:50.206Z,19.80
2019-06-08T18:56:54.769Z,19.70
2019-06-08T19:01:59.259Z,19.60
2019-06-08T19:07:04.818Z,19.50
2019-06-08T19:12:09.300Z,19.40
2019-06-08T19:17:13.787Z,19.40
2019-06-08T19:22:18.932Z,19.30
2019-06-08T19:27:30.501Z,19.30
2019-06-08T19:32:34.989Z,19.20
2019-06-08T19:37:39.700Z,19.10
2019-06-08T19:42:53.777Z,19.10
2019-06-08T19:47:51.009Z,19.00
2019-06-08T19:52:57.834Z,19.00
2019-06-08T19:58:01.709Z,18.90
2019-06-08T20:03:07.645Z,18.90
2019-06-08T20:08:12.315Z,18.80
2019-06-08T20:13:16.955Z,18.70
2019-06-08T20:18:21.454Z,18.70
2019-06-08T20:23:27.596Z,18.60
2019-06-08T20:28:32.344Z,18.50
2019-06-08T20:33:37.867Z,18.50
2019-06-08T20:38:44.239Z,18.40
2019-06-08T20:43:51.706Z,18.30
2019-06-08T20:48:57.577Z,18.20
2019-06-08T20:54:01.398Z,18.20
2019-06-08T20:59:08.232Z,18.10
2019-06-08T21:04:12.282Z,18.10
2019-06-08T21:09:18.595Z,17.90
2019-06-08T21:14:23.007Z,17.90
2019-06-08T21:19:28.096Z,17.90
2019-06-08T21:24:32.902Z,17.80
2019-06-08T21:29:47.488Z,17.80
2019-06-08T21:34:43.927Z,17.70
2019-06-08T21:39:53.006Z,17.60
2019-06-08T21:44:55.849Z,17.50
2019-06-08T21:55:07.289Z,17.30
2019-06-08T22:00:29.417Z,17.30
2019-06-08T22:05:18.920Z,17.40
2019-06-08T22:10:23.417Z,17.40
2019-06-08T22:15:27.906Z,17.30
2019-06-08T22:20:33.387Z,17.20
2019-06-08T22:25:38.738Z,17.30
2019-06-08T22:30:43.510Z,17.30
2019-06-08T22:35:49.178Z,17.30
2019-06-08T22:40:54.778Z,17.20
2019-06-08T22:46:01.706Z,17.10
2019-06-08T22:51:08.034Z,17.10
2019-06-08T22:56:12.723Z,17.10
2019-06-08T23:01:18.445Z,17.10
2019-06-08T23:06:22.996Z,17.10
